sensor_id;sensor_type;location;lat;lon;timestamp;P1;durP1;ratioP1;P2;durP2;ratioP2
39188;SDS011;24915;50.858;4.376;2022-08-05T00:01:50;6.82;;;3.63;;
39188;SDS011;24915;50.858;4.376;2022-08-05T00:04:16;8.32;;;3.55;;
39188;SDS011;24915;50.858;4.376;2022-08-05T00:06:42;7.18;;;3.20;;
39188;SDS011;24915;50.858;4.376;2022-08-05T00:09:07;6.15;;;2.90;;
39188;SDS011;24915;50.858;4.376;2022-08-05T00:11:33;9.30;;;2.90;;
39188;SDS011;24915;50.858;4.376;2022-08-05T00:13:58;4.70;;;2.70;;
39188;SDS011;24915;50.858;4.376;2022-08-05T00:16:24;6.10;;;2.85;;
39188;SDS011;24915;50.858;4.376;2022-08-05T00:18:50;5.70;;;2.58;;
39188;SDS011;24915;50.858;4.376;2022-08-05T00:21:16;6.18;;;2.90;;
39188;SDS011;24915;50.858;4.376;2022-08-05T00:23:42;7.55;;;2.83;;
39188;SDS011;24915;50.858;4.376;2022-08-05T00:26:10;13.38;;;3.47;;
39188;SDS011;24915;50.858;4.376;2022-08-05T00:28:37;7.68;;;3.08;;
39188;SDS011;24915;50.858;4.376;2022-08-05T00:31:03;6.53;;;2.90;;
39188;SDS011;24915;50.858;4.376;2022-08-05T00:33:29;9.40;;;2.58;;
39188;SDS011;24915;50.858;4.376;2022-08-05T00:35:55;4.68;;;2.40;;
39188;SDS011;24915;50.858;4.376;2022-08-05T00:38:21;5.95;;;2.85;;
39188;SDS011;24915;50.858;4.376;2022-08-05T00:40:56;7.53;;;2.90;;
39188;SDS011;24915;50.858;4.376;2022-08-05T00:43:25;4.82;;;2.53;;
39188;SDS011;24915;50.858;4.376;2022-08-05T00:45:51;3.45;;;2.63;;
39188;SDS011;24915;50.858;4.376;2022-08-05T00:48:18;7.57;;;2.90;;
39188;SDS011;24915;50.858;4.376;2022-08-05T00:50:46;5.22;;;2.83;;
39188;SDS011;24915;50.858;4.376;2022-08-05T00:53:14;6.15;;;2.85;;
39188;SDS011;24915;50.858;4.376;2022-08-05T00:55:44;4.55;;;2.70;;
39188;SDS011;24915;50.858;4.376;2022-08-05T00:58:11;6.63;;;3.53;;
39188;SDS011;24915;50.858;4.376;2022-08-05T01:00:38;7.22;;;3.33;;
39188;SDS011;24915;50.858;4.376;2022-08-05T01:03:04;7.85;;;3.38;;
39188;SDS011;24915;50.858;4.376;2022-08-05T01:05:30;8.40;;;2.75;;
39188;SDS011;24915;50.858;4.376;2022-08-05T01:07:55;6.60;;;2.85;;
39188;SDS011;24915;50.858;4.376;2022-08-05T01:10:21;7.53;;;2.88;;
39188;SDS011;24915;50.858;4.376;2022-08-05T01:12:54;8.73;;;3.17;;
39188;SDS011;24915;50.858;4.376;2022-08-05T01:15:26;7.67;;;3.03;;
39188;SDS011;24915;50.858;4.376;2022-08-05T01:18:00;7.55;;;3.45;;
39188;SDS011;24915;50.858;4.376;2022-08-05T01:23:25;7.80;;;3.40;;
39188;SDS011;24915;50.858;4.376;2022-08-05T01:28:57;6.57;;;3.10;;
39188;SDS011;24915;50.858;4.376;2022-08-05T01:31:38;6.75;;;3.10;;
39188;SDS011;24915;50.858;4.376;2022-08-05T01:36:42;9.43;;;3.22;;
39188;SDS011;24915;50.858;4.376;2022-08-05T01:39:11;5.88;;;3.15;;
39188;SDS011;24915;50.858;4.376;2022-08-05T01:41:38;5.50;;;3.17;;
39188;SDS011;24915;50.858;4.376;2022-08-05T01:44:06;5.97;;;3.20;;
39188;SDS011;24915;50.858;4.376;2022-08-05T01:46:33;7.93;;;3.20;;
39188;SDS011;24915;50.858;4.376;2022-08-05T01:49:00;5.50;;;3.25;;
39188;SDS011;24915;50.858;4.376;2022-08-05T01:51:27;11.50;;;3.65;;
39188;SDS011;24915;50.858;4.376;2022-08-05T01:53:55;9.13;;;3.38;;
39188;SDS011;24915;50.858;4.376;2022-08-05T01:56:23;9.38;;;3.22;;
39188;SDS011;24915;50.858;4.376;2022-08-05T01:58:55;11.60;;;3.75;;
39188;SDS011;24915;50.858;4.376;2022-08-05T02:01:22;10.25;;;3.10;;
39188;SDS011;24915;50.858;4.376;2022-08-05T02:03:51;7.28;;;2.83;;
39188;SDS011;24915;50.858;4.376;2022-08-05T02:06:19;9.93;;;3.25;;
39188;SDS011;24915;50.858;4.376;2022-08-05T02:08:45;7.18;;;3.58;;
39188;SDS011;24915;50.858;4.376;2022-08-05T02:11:12;10.93;;;3.90;;
39188;SDS011;24915;50.858;4.376;2022-08-05T02:13:51;6.13;;;2.80;;
39188;SDS011;24915;50.858;4.376;2022-08-05T02:16:27;11.63;;;3.78;;
39188;SDS011;24915;50.858;4.376;2022-08-05T02:18:59;8.55;;;3.30;;
39188;SDS011;24915;50.858;4.376;2022-08-05T02:21:35;6.60;;;3.05;;
39188;SDS011;24915;50.858;4.376;2022-08-05T02:24:07;10.57;;;3.30;;
39188;SDS011;24915;50.858;4.376;2022-08-05T02:26:38;9.55;;;3.72;;
39188;SDS011;24915;50.858;4.376;2022-08-05T02:29:11;8.18;;;3.35;;
39188;SDS011;24915;50.858;4.376;2022-08-05T02:31:40;5.88;;;3.47;;
39188;SDS011;24915;50.858;4.376;2022-08-05T02:34:10;11.35;;;3.90;;
39188;SDS011;24915;50.858;4.376;2022-08-05T02:36:47;10.70;;;4.00;;
39188;SDS011;24915;50.858;4.376;2022-08-05T02:39:19;7.63;;;3.97;;
39188;SDS011;24915;50.858;4.376;2022-08-05T02:41:46;6.97;;;3.60;;
39188;SDS011;24915;50.858;4.376;2022-08-05T02:44:12;9.35;;;3.63;;
39188;SDS011;24915;50.858;4.376;2022-08-05T02:46:39;11.18;;;3.83;;
39188;SDS011;24915;50.858;4.376;2022-08-05T02:49:06;6.57;;;3.33;;
39188;SDS011;24915;50.858;4.376;2022-08-05T02:51:34;8.10;;;3.63;;
39188;SDS011;24915;50.858;4.376;2022-08-05T02:54:02;9.60;;;3.80;;
39188;SDS011;24915;50.858;4.376;2022-08-05T02:56:29;9.25;;;4.18;;
39188;SDS011;24915;50.858;4.376;2022-08-05T02:58:56;15.32;;;4.95;;
39188;SDS011;24915;50.858;4.376;2022-08-05T03:01:23;10.00;;;4.00;;
39188;SDS011;24915;50.858;4.376;2022-08-05T03:03:55;11.25;;;4.65;;
39188;SDS011;24915;50.858;4.376;2022-08-05T03:06:24;10.23;;;3.95;;
39188;SDS011;24915;50.858;4.376;2022-08-05T03:08:51;10.18;;;4.47;;
39188;SDS011;24915;50.858;4.376;2022-08-05T03:11:18;12.27;;;4.38;;
39188;SDS011;24915;50.858;4.376;2022-08-05T03:13:46;10.80;;;4.40;;
39188;SDS011;24915;50.858;4.376;2022-08-05T03:16:12;9.77;;;4.18;;
39188;SDS011;24915;50.858;4.376;2022-08-05T03:18:37;13.25;;;3.58;;
39188;SDS011;24915;50.858;4.376;2022-08-05T03:21:03;8.55;;;4.30;;
39188;SDS011;24915;50.858;4.376;2022-08-05T03:23:29;12.55;;;4.78;;
39188;SDS011;24915;50.858;4.376;2022-08-05T03:25:56;13.88;;;4.13;;
39188;SDS011;24915;50.858;4.376;2022-08-05T03:28:22;7.65;;;3.90;;
39188;SDS011;24915;50.858;4.376;2022-08-05T03:30:48;10.98;;;4.55;;
39188;SDS011;24915;50.858;4.376;2022-08-05T03:33:14;19.05;;;4.68;;
39188;SDS011;24915;50.858;4.376;2022-08-05T03:35:40;12.10;;;4.45;;
39188;SDS011;24915;50.858;4.376;2022-08-05T03:38:09;10.80;;;4.03;;
39188;SDS011;24915;50.858;4.376;2022-08-05T03:40:38;12.57;;;4.60;;
39188;SDS011;24915;50.858;4.376;2022-08-05T03:43:04;10.65;;;4.32;;
39188;SDS011;24915;50.858;4.376;2022-08-05T03:45:30;12.25;;;4.20;;
39188;SDS011;24915;50.858;4.376;2022-08-05T03:47:56;12.70;;;4.85;;
39188;SDS011;24915;50.858;4.376;2022-08-05T03:50:21;13.70;;;4.55;;
39188;SDS011;24915;50.858;4.376;2022-08-05T03:53:00;11.90;;;4.85;;
39188;SDS011;24915;50.858;4.376;2022-08-05T03:55:33;10.65;;;4.93;;
39188;SDS011;24915;50.858;4.376;2022-08-05T03:58:01;14.40;;;5.10;;
39188;SDS011;24915;50.858;4.376;2022-08-05T04:00:29;9.82;;;4.50;;
39188;SDS011;24915;50.858;4.376;2022-08-05T04:02:59;12.93;;;4.57;;
39188;SDS011;24915;50.858;4.376;2022-08-05T04:05:31;12.32;;;4.63;;
39188;SDS011;24915;50.858;4.376;2022-08-05T04:07:58;11.65;;;4.90;;
39188;SDS011;24915;50.858;4.376;2022-08-05T04:10:29;12.55;;;4.82;;
39188;SDS011;24915;50.858;4.376;2022-08-05T04:12:55;13.70;;;4.53;;
39188;SDS011;24915;50.858;4.376;2022-08-05T04:15:21;17.17;;;4.80;;
39188;SDS011;24915;50.858;4.376;2022-08-05T04:17:47;9.85;;;4.53;;
39188;SDS011;24915;50.858;4.376;2022-08-05T04:20:19;11.45;;;4.70;;
39188;SDS011;24915;50.858;4.376;2022-08-05T04:22:46;13.68;;;4.97;;
39188;SDS011;24915;50.858;4.376;2022-08-05T04:25:12;15.02;;;5.72;;
39188;SDS011;24915;50.858;4.376;2022-08-05T04:27:38;12.80;;;5.38;;
39188;SDS011;24915;50.858;4.376;2022-08-05T04:30:04;14.52;;;5.63;;
39188;SDS011;24915;50.858;4.376;2022-08-05T04:32:31;14.80;;;4.55;;
39188;SDS011;24915;50.858;4.376;2022-08-05T04:34:56;11.52;;;4.75;;
39188;SDS011;24915;50.858;4.376;2022-08-05T04:37:22;13.90;;;5.05;;
39188;SDS011;24915;50.858;4.376;2022-08-05T04:39:48;16.10;;;5.47;;
39188;SDS011;24915;50.858;4.376;2022-08-05T04:42:14;17.33;;;5.28;;
39188;SDS011;24915;50.858;4.376;2022-08-05T04:44:40;15.32;;;4.80;;
39188;SDS011;24915;50.858;4.376;2022-08-05T04:47:05;16.15;;;5.70;;
39188;SDS011;24915;50.858;4.376;2022-08-05T04:49:31;19.55;;;5.40;;
39188;SDS011;24915;50.858;4.376;2022-08-05T04:51:57;9.15;;;5.00;;
39188;SDS011;24915;50.858;4.376;2022-08-05T04:54:22;13.88;;;5.05;;
39188;SDS011;24915;50.858;4.376;2022-08-05T04:56:51;10.70;;;4.40;;
39188;SDS011;24915;50.858;4.376;2022-08-05T04:59:18;19.23;;;5.55;;
39188;SDS011;24915;50.858;4.376;2022-08-05T05:01:44;14.55;;;5.28;;
39188;SDS011;24915;50.858;4.376;2022-08-05T05:04:10;12.63;;;5.22;;
39188;SDS011;24915;50.858;4.376;2022-08-05T05:06:36;14.98;;;5.15;;
39188;SDS011;24915;50.858;4.376;2022-08-05T05:09:02;16.67;;;5.07;;
39188;SDS011;24915;50.858;4.376;2022-08-05T05:11:28;10.95;;;4.93;;
39188;SDS011;24915;50.858;4.376;2022-08-05T05:13:53;15.15;;;5.78;;
39188;SDS011;24915;50.858;4.376;2022-08-05T05:16:19;17.95;;;5.63;;
39188;SDS011;24915;50.858;4.376;2022-08-05T05:18:45;19.85;;;4.82;;
39188;SDS011;24915;50.858;4.376;2022-08-05T05:21:10;12.43;;;4.63;;
39188;SDS011;24915;50.858;4.376;2022-08-05T05:23:36;10.52;;;4.70;;
39188;SDS011;24915;50.858;4.376;2022-08-05T05:26:02;11.35;;;4.50;;
39188;SDS011;24915;50.858;4.376;2022-08-05T05:28:28;15.02;;;5.43;;
39188;SDS011;24915;50.858;4.376;2022-08-05T05:30:53;14.18;;;5.43;;
39188;SDS011;24915;50.858;4.376;2022-08-05T05:33:19;10.77;;;4.57;;
39188;SDS011;24915;50.858;4.376;2022-08-05T05:35:45;15.38;;;4.85;;
39188;SDS011;24915;50.858;4.376;2022-08-05T05:38:11;13.60;;;4.50;;
39188;SDS011;24915;50.858;4.376;2022-08-05T05:40:37;14.02;;;4.90;;
39188;SDS011;24915;50.858;4.376;2022-08-05T05:43:03;6.82;;;4.55;;
39188;SDS011;24915;50.858;4.376;2022-08-05T05:45:29;16.70;;;4.57;;
39188;SDS011;24915;50.858;4.376;2022-08-05T05:47:58;14.85;;;4.78;;
39188;SDS011;24915;50.858;4.376;2022-08-05T05:50:24;9.93;;;4.65;;
39188;SDS011;24915;50.858;4.376;2022-08-05T05:52:50;13.30;;;4.32;;
39188;SDS011;24915;50.858;4.376;2022-08-05T05:55:15;16.60;;;4.82;;
39188;SDS011;24915;50.858;4.376;2022-08-05T05:57:42;14.65;;;4.85;;
39188;SDS011;24915;50.858;4.376;2022-08-05T06:00:10;19.25;;;5.10;;
39188;SDS011;24915;50.858;4.376;2022-08-05T06:02:37;16.27;;;5.40;;
39188;SDS011;24915;50.858;4.376;2022-08-05T06:05:05;14.77;;;5.15;;
39188;SDS011;24915;50.858;4.376;2022-08-05T06:07:32;14.27;;;4.88;;
39188;SDS011;24915;50.858;4.376;2022-08-05T06:09:57;12.48;;;4.38;;
39188;SDS011;24915;50.858;4.376;2022-08-05T06:12:23;14.20;;;5.38;;
39188;SDS011;24915;50.858;4.376;2022-08-05T06:14:48;11.75;;;4.93;;
39188;SDS011;24915;50.858;4.376;2022-08-05T06:17:14;15.45;;;5.32;;
39188;SDS011;24915;50.858;4.376;2022-08-05T06:19:40;11.80;;;5.00;;
39188;SDS011;24915;50.858;4.376;2022-08-05T06:22:06;10.38;;;4.30;;
39188;SDS011;24915;50.858;4.376;2022-08-05T06:24:32;13.50;;;4.38;;
39188;SDS011;24915;50.858;4.376;2022-08-05T06:26:58;17.67;;;5.00;;
39188;SDS011;24915;50.858;4.376;2022-08-05T06:29:24;11.10;;;5.28;;
39188;SDS011;24915;50.858;4.376;2022-08-05T06:31:50;14.38;;;4.95;;
39188;SDS011;24915;50.858;4.376;2022-08-05T06:34:16;18.30;;;6.03;;
39188;SDS011;24915;50.858;4.376;2022-08-05T06:36:41;13.65;;;5.15;;
39188;SDS011;24915;50.858;4.376;2022-08-05T06:39:07;14.07;;;5.18;;
39188;SDS011;24915;50.858;4.376;2022-08-05T06:41:33;11.57;;;5.25;;
39188;SDS011;24915;50.858;4.376;2022-08-05T06:43:58;11.93;;;4.82;;
39188;SDS011;24915;50.858;4.376;2022-08-05T06:46:24;13.93;;;5.10;;
39188;SDS011;24915;50.858;4.376;2022-08-05T06:48:50;10.27;;;4.50;;
39188;SDS011;24915;50.858;4.376;2022-08-05T06:51:16;13.50;;;5.20;;
39188;SDS011;24915;50.858;4.376;2022-08-05T06:53:41;9.75;;;5.10;;
39188;SDS011;24915;50.858;4.376;2022-08-05T06:56:07;12.10;;;4.88;;
39188;SDS011;24915;50.858;4.376;2022-08-05T06:58:33;12.63;;;5.20;;
39188;SDS011;24915;50.858;4.376;2022-08-05T07:01:00;17.23;;;5.80;;
39188;SDS011;24915;50.858;4.376;2022-08-05T07:03:27;14.90;;;5.60;;
39188;SDS011;24915;50.858;4.376;2022-08-05T07:05:54;10.80;;;5.05;;
39188;SDS011;24915;50.858;4.376;2022-08-05T07:08:20;11.77;;;4.97;;
39188;SDS011;24915;50.858;4.376;2022-08-05T07:10:52;9.25;;;4.18;;
39188;SDS011;24915;50.858;4.376;2022-08-05T07:13:18;13.13;;;5.53;;
39188;SDS011;24915;50.858;4.376;2022-08-05T07:16:04;14.13;;;5.10;;
39188;SDS011;24915;50.858;4.376;2022-08-05T07:18:48;16.90;;;4.93;;
39188;SDS011;24915;50.858;4.376;2022-08-05T07:21:13;11.95;;;4.68;;
39188;SDS011;24915;50.858;4.376;2022-08-05T07:23:39;15.60;;;4.82;;
39188;SDS011;24915;50.858;4.376;2022-08-05T07:26:05;17.60;;;5.43;;
39188;SDS011;24915;50.858;4.376;2022-08-05T07:28:31;13.05;;;4.72;;
39188;SDS011;24915;50.858;4.376;2022-08-05T07:30:56;11.85;;;4.82;;
39188;SDS011;24915;50.858;4.376;2022-08-05T07:33:22;18.52;;;4.72;;
39188;SDS011;24915;50.858;4.376;2022-08-05T07:35:48;10.77;;;5.10;;
39188;SDS011;24915;50.858;4.376;2022-08-05T07:38:15;12.98;;;4.68;;
39188;SDS011;24915;50.858;4.376;2022-08-05T07:40:42;12.85;;;4.28;;
39188;SDS011;24915;50.858;4.376;2022-08-05T07:43:08;10.48;;;4.15;;
39188;SDS011;24915;50.858;4.376;2022-08-05T07:45:34;13.23;;;4.85;;
39188;SDS011;24915;50.858;4.376;2022-08-05T07:48:00;9.25;;;4.40;;
39188;SDS011;24915;50.858;4.376;2022-08-05T07:50:25;13.20;;;4.90;;
39188;SDS011;24915;50.858;4.376;2022-08-05T07:52:51;12.98;;;4.28;;
39188;SDS011;24915;50.858;4.376;2022-08-05T07:55:17;9.13;;;3.95;;
39188;SDS011;24915;50.858;4.376;2022-08-05T07:57:43;9.60;;;4.20;;
39188;SDS011;24915;50.858;4.376;2022-08-05T08:00:09;13.70;;;4.80;;
39188;SDS011;24915;50.858;4.376;2022-08-05T08:02:39;14.48;;;4.18;;
39188;SDS011;24915;50.858;4.376;2022-08-05T08:05:05;17.98;;;4.18;;
39188;SDS011;24915;50.858;4.376;2022-08-05T08:07:31;12.88;;;3.55;;
39188;SDS011;24915;50.858;4.376;2022-08-05T08:09:59;12.20;;;3.22;;
39188;SDS011;24915;50.858;4.376;2022-08-05T08:12:25;10.65;;;3.20;;
39188;SDS011;24915;50.858;4.376;2022-08-05T08:14:51;9.40;;;3.25;;
39188;SDS011;24915;50.858;4.376;2022-08-05T08:17:17;13.70;;;3.28;;
39188;SDS011;24915;50.858;4.376;2022-08-05T08:19:44;8.93;;;3.00;;
39188;SDS011;24915;50.858;4.376;2022-08-05T08:22:09;11.05;;;3.15;;
39188;SDS011;24915;50.858;4.376;2022-08-05T08:24:36;9.30;;;2.90;;
39188;SDS011;24915;50.858;4.376;2022-08-05T08:27:02;6.55;;;2.90;;
39188;SDS011;24915;50.858;4.376;2022-08-05T08:29:29;8.32;;;2.67;;
39188;SDS011;24915;50.858;4.376;2022-08-05T08:31:55;11.07;;;2.70;;
39188;SDS011;24915;50.858;4.376;2022-08-05T08:34:22;7.70;;;2.53;;
39188;SDS011;24915;50.858;4.376;2022-08-05T08:36:50;10.27;;;3.03;;
39188;SDS011;24915;50.858;4.376;2022-08-05T08:39:16;8.45;;;2.33;;
39188;SDS011;24915;50.858;4.376;2022-08-05T08:41:46;7.97;;;2.13;;
39188;SDS011;24915;50.858;4.376;2022-08-05T08:44:14;7.25;;;2.35;;
39188;SDS011;24915;50.858;4.376;2022-08-05T08:46:41;4.03;;;1.83;;
39188;SDS011;24915;50.858;4.376;2022-08-05T08:49:08;4.32;;;1.65;;
39188;SDS011;24915;50.858;4.376;2022-08-05T08:51:37;3.90;;;1.90;;
39188;SDS011;24915;50.858;4.376;2022-08-05T08:54:05;9.93;;;2.20;;
39188;SDS011;24915;50.858;4.376;2022-08-05T08:56:30;6.20;;;1.77;;
39188;SDS011;24915;50.858;4.376;2022-08-05T08:58:58;7.90;;;2.05;;
39188;SDS011;24915;50.858;4.376;2022-08-05T09:01:24;5.63;;;1.60;;
39188;SDS011;24915;50.858;4.376;2022-08-05T09:03:51;3.97;;;1.80;;
39188;SDS011;24915;50.858;4.376;2022-08-05T09:06:20;11.05;;;2.17;;
39188;SDS011;24915;50.858;4.376;2022-08-05T09:08:46;3.58;;;1.77;;
39188;SDS011;24915;50.858;4.376;2022-08-05T09:11:12;8.82;;;2.10;;
39188;SDS011;24915;50.858;4.376;2022-08-05T09:13:39;6.47;;;2.40;;
39188;SDS011;24915;50.858;4.376;2022-08-05T09:16:05;9.77;;;2.00;;
39188;SDS011;24915;50.858;4.376;2022-08-05T09:18:34;7.38;;;1.80;;
39188;SDS011;24915;50.858;4.376;2022-08-05T09:21:00;5.07;;;1.65;;
39188;SDS011;24915;50.858;4.376;2022-08-05T09:23:26;6.63;;;2.15;;
39188;SDS011;24915;50.858;4.376;2022-08-05T09:26:08;8.07;;;1.92;;
39188;SDS011;24915;50.858;4.376;2022-08-05T09:28:38;7.15;;;2.42;;
39188;SDS011;24915;50.858;4.376;2022-08-05T09:31:09;7.50;;;2.67;;
39188;SDS011;24915;50.858;4.376;2022-08-05T09:33:49;9.30;;;2.85;;
39188;SDS011;24915;50.858;4.376;2022-08-05T09:36:17;6.20;;;3.08;;
39188;SDS011;24915;50.858;4.376;2022-08-05T09:38:56;3.40;;;2.50;;
39188;SDS011;24915;50.858;4.376;2022-08-05T09:41:22;6.13;;;2.10;;
39188;SDS011;24915;50.858;4.376;2022-08-05T09:43:49;6.45;;;2.50;;
39188;SDS011;24915;50.858;4.376;2022-08-05T09:48:51;6.05;;;1.90;;
39188;SDS011;24915;50.858;4.376;2022-08-05T09:51:26;4.72;;;1.65;;
39188;SDS011;24915;50.858;4.376;2022-08-05T09:53:59;2.63;;;1.95;;
39188;SDS011;24915;50.858;4.376;2022-08-05T09:56:26;7.97;;;2.40;;
39188;SDS011;24915;50.858;4.376;2022-08-05T09:59:09;3.53;;;1.77;;
39188;SDS011;24915;50.858;4.376;2022-08-05T10:01:40;2.33;;;1.80;;
39188;SDS011;24915;50.858;4.376;2022-08-05T10:06:41;3.53;;;1.55;;
39188;SDS011;24915;50.858;4.376;2022-08-05T10:09:17;6.15;;;1.77;;
39188;SDS011;24915;50.858;4.376;2022-08-05T10:11:47;3.60;;;1.30;;
39188;SDS011;24915;50.858;4.376;2022-08-05T10:16:49;5.85;;;1.40;;
39188;SDS011;24915;50.858;4.376;2022-08-05T10:19:16;3.97;;;1.58;;
39188;SDS011;24915;50.858;4.376;2022-08-05T10:21:42;4.22;;;1.17;;
39188;SDS011;24915;50.858;4.376;2022-08-05T10:24:09;3.85;;;1.50;;
39188;SDS011;24915;50.858;4.376;2022-08-05T10:26:40;4.18;;;1.30;;
39188;SDS011;24915;50.858;4.376;2022-08-05T10:29:16;5.25;;;1.80;;
39188;SDS011;24915;50.858;4.376;2022-08-05T10:31:41;7.93;;;1.75;;
39188;SDS011;24915;50.858;4.376;2022-08-05T10:34:08;3.45;;;1.55;;
39188;SDS011;24915;50.858;4.376;2022-08-05T10:36:35;2.53;;;1.10;;
39188;SDS011;24915;50.858;4.376;2022-08-05T10:39:04;2.42;;;1.27;;
39188;SDS011;24915;50.858;4.376;2022-08-05T10:41:39;3.17;;;1.27;;
39188;SDS011;24915;50.858;4.376;2022-08-05T10:44:11;5.72;;;1.67;;
39188;SDS011;24915;50.858;4.376;2022-08-05T10:46:42;6.43;;;1.20;;
39188;SDS011;24915;50.858;4.376;2022-08-05T10:49:07;3.25;;;1.35;;
39188;SDS011;24915;50.858;4.376;2022-08-05T10:51:43;1.90;;;1.10;;
39188;SDS011;24915;50.858;4.376;2022-08-05T10:54:22;2.97;;;0.95;;
39188;SDS011;24915;50.858;4.376;2022-08-05T10:56:49;3.10;;;1.00;;
39188;SDS011;24915;50.858;4.376;2022-08-05T10:59:17;3.95;;;0.93;;
39188;SDS011;24915;50.858;4.376;2022-08-05T11:02:04;1.60;;;1.00;;
39188;SDS011;24915;50.858;4.376;2022-08-05T11:07:11;1.88;;;1.33;;
39188;SDS011;24915;50.858;4.376;2022-08-05T11:09:47;5.72;;;1.15;;
39188;SDS011;24915;50.858;4.376;2022-08-05T11:17:35;2.95;;;1.02;;
39188;SDS011;24915;50.858;4.376;2022-08-05T11:20:05;6.53;;;1.17;;
39188;SDS011;24915;50.858;4.376;2022-08-05T11:22:48;3.40;;;1.00;;
39188;SDS011;24915;50.858;4.376;2022-08-05T11:33:27;2.05;;;0.90;;
39188;SDS011;24915;50.858;4.376;2022-08-05T11:35:55;5.50;;;1.20;;
39188;SDS011;24915;50.858;4.376;2022-08-05T11:41:14;4.28;;;0.95;;
39188;SDS011;24915;50.858;4.376;2022-08-05T11:43:43;3.72;;;1.05;;
39188;SDS011;24915;50.858;4.376;2022-08-05T11:46:09;2.22;;;0.90;;
39188;SDS011;24915;50.858;4.376;2022-08-05T11:48:35;5.20;;;1.20;;
39188;SDS011;24915;50.858;4.376;2022-08-05T11:51:06;2.75;;;1.00;;
39188;SDS011;24915;50.858;4.376;2022-08-05T11:53:33;4.72;;;1.10;;
39188;SDS011;24915;50.858;4.376;2022-08-05T11:56:00;7.47;;;1.20;;
39188;SDS011;24915;50.858;4.376;2022-08-05T11:58:33;4.82;;;1.45;;
39188;SDS011;24915;50.858;4.376;2022-08-05T12:01:00;3.10;;;1.05;;
39188;SDS011;24915;50.858;4.376;2022-08-05T12:03:38;2.40;;;0.70;;
39188;SDS011;24915;50.858;4.376;2022-08-05T12:06:06;1.77;;;0.80;;
39188;SDS011;24915;50.858;4.376;2022-08-05T12:08:32;4.72;;;1.17;;
39188;SDS011;24915;50.858;4.376;2022-08-05T12:11:03;2.47;;;0.70;;
39188;SDS011;24915;50.858;4.376;2022-08-05T12:13:31;2.55;;;1.00;;
39188;SDS011;24915;50.858;4.376;2022-08-05T12:15:58;4.10;;;1.27;;
39188;SDS011;24915;50.858;4.376;2022-08-05T12:18:30;5.47;;;1.08;;
39188;SDS011;24915;50.858;4.376;2022-08-05T12:21:08;4.13;;;1.25;;
39188;SDS011;24915;50.858;4.376;2022-08-05T12:23:35;4.25;;;1.20;;
39188;SDS011;24915;50.858;4.376;2022-08-05T12:26:01;3.22;;;0.95;;
39188;SDS011;24915;50.858;4.376;2022-08-05T12:28:31;6.70;;;1.15;;
39188;SDS011;24915;50.858;4.376;2022-08-05T12:33:26;6.53;;;1.17;;
39188;SDS011;24915;50.858;4.376;2022-08-05T12:35:53;5.22;;;0.80;;
39188;SDS011;24915;50.858;4.376;2022-08-05T12:38:20;3.35;;;1.50;;
39188;SDS011;24915;50.858;4.376;2022-08-05T12:40:47;5.60;;;0.98;;
39188;SDS011;24915;50.858;4.376;2022-08-05T12:43:14;4.05;;;1.10;;
39188;SDS011;24915;50.858;4.376;2022-08-05T12:45:52;3.03;;;1.00;;
39188;SDS011;24915;50.858;4.376;2022-08-05T12:48:20;6.25;;;1.27;;
39188;SDS011;24915;50.858;4.376;2022-08-05T12:53:33;2.78;;;1.30;;
39188;SDS011;24915;50.858;4.376;2022-08-05T12:56:15;4.70;;;1.30;;
39188;SDS011;24915;50.858;4.376;2022-08-05T12:58:42;5.90;;;0.80;;
39188;SDS011;24915;50.858;4.376;2022-08-05T13:01:10;3.40;;;0.85;;
39188;SDS011;24915;50.858;4.376;2022-08-05T13:03:38;1.65;;;0.80;;
39188;SDS011;24915;50.858;4.376;2022-08-05T13:06:07;3.63;;;0.93;;
39188;SDS011;24915;50.858;4.376;2022-08-05T13:08:37;2.20;;;1.10;;
39188;SDS011;24915;50.858;4.376;2022-08-05T13:11:03;1.45;;;0.80;;
39188;SDS011;24915;50.858;4.376;2022-08-05T13:13:29;2.25;;;0.73;;
39188;SDS011;24915;50.858;4.376;2022-08-05T13:15:55;2.33;;;0.90;;
39188;SDS011;24915;50.858;4.376;2022-08-05T13:18:21;1.50;;;0.60;;
39188;SDS011;24915;50.858;4.376;2022-08-05T13:20:47;1.48;;;0.90;;
39188;SDS011;24915;50.858;4.376;2022-08-05T13:23:13;2.20;;;1.10;;
39188;SDS011;24915;50.858;4.376;2022-08-05T13:25:38;5.57;;;0.98;;
39188;SDS011;24915;50.858;4.376;2022-08-05T13:28:04;1.70;;;0.80;;
39188;SDS011;24915;50.858;4.376;2022-08-05T13:30:30;5.00;;;0.95;;
39188;SDS011;24915;50.858;4.376;2022-08-05T13:32:57;3.88;;;1.30;;
39188;SDS011;24915;50.858;4.376;2022-08-05T13:35:24;4.55;;;1.13;;
39188;SDS011;24915;50.858;4.376;2022-08-05T13:37:49;3.08;;;0.63;;
39188;SDS011;24915;50.858;4.376;2022-08-05T13:40:15;2.90;;;0.80;;
39188;SDS011;24915;50.858;4.376;2022-08-05T13:42:42;1.50;;;1.20;;
39188;SDS011;24915;50.858;4.376;2022-08-05T13:45:08;4.72;;;0.95;;
39188;SDS011;24915;50.858;4.376;2022-08-05T13:47:34;2.58;;;0.90;;
39188;SDS011;24915;50.858;4.376;2022-08-05T13:50:01;1.40;;;1.00;;
39188;SDS011;24915;50.858;4.376;2022-08-05T13:52:29;5.35;;;1.20;;
39188;SDS011;24915;50.858;4.376;2022-08-05T13:54:54;2.53;;;0.80;;
39188;SDS011;24915;50.858;4.376;2022-08-05T13:57:22;5.07;;;0.93;;
39188;SDS011;24915;50.858;4.376;2022-08-05T13:59:48;3.42;;;1.10;;
39188;SDS011;24915;50.858;4.376;2022-08-05T14:02:14;2.85;;;1.40;;
39188;SDS011;24915;50.858;4.376;2022-08-05T14:04:43;2.88;;;1.02;;
39188;SDS011;24915;50.858;4.376;2022-08-05T14:07:29;3.05;;;2.20;;
39188;SDS011;24915;50.858;4.376;2022-08-05T14:09:57;2.65;;;1.33;;
39188;SDS011;24915;50.858;4.376;2022-08-05T14:12:23;3.45;;;1.88;;
39188;SDS011;24915;50.858;4.376;2022-08-05T14:14:49;4.68;;;1.40;;
39188;SDS011;24915;50.858;4.376;2022-08-05T14:17:16;3.95;;;1.42;;
39188;SDS011;24915;50.858;4.376;2022-08-05T14:19:42;2.15;;;1.55;;
39188;SDS011;24915;50.858;4.376;2022-08-05T14:22:09;3.05;;;0.90;;
39188;SDS011;24915;50.858;4.376;2022-08-05T14:24:34;2.58;;;0.80;;
39188;SDS011;24915;50.858;4.376;2022-08-05T14:27:02;4.28;;;1.10;;
39188;SDS011;24915;50.858;4.376;2022-08-05T14:29:31;3.83;;;0.80;;
39188;SDS011;24915;50.858;4.376;2022-08-05T14:31:56;1.92;;;0.82;;
39188;SDS011;24915;50.858;4.376;2022-08-05T14:34:22;2.20;;;1.10;;
39188;SDS011;24915;50.858;4.376;2022-08-05T14:36:49;3.63;;;0.70;;
39188;SDS011;24915;50.858;4.376;2022-08-05T14:39:15;1.85;;;1.05;;
39188;SDS011;24915;50.858;4.376;2022-08-05T14:41:40;2.65;;;0.60;;
39188;SDS011;24915;50.858;4.376;2022-08-05T14:44:06;1.65;;;0.70;;
39188;SDS011;24915;50.858;4.376;2022-08-05T14:46:32;6.70;;;0.98;;
39188;SDS011;24915;50.858;4.376;2022-08-05T14:48:58;1.95;;;0.65;;
39188;SDS011;24915;50.858;4.376;2022-08-05T14:51:26;2.17;;;0.93;;
39188;SDS011;24915;50.858;4.376;2022-08-05T14:53:52;3.58;;;1.02;;
39188;SDS011;24915;50.858;4.376;2022-08-05T14:56:17;1.92;;;1.73;;
39188;SDS011;24915;50.858;4.376;2022-08-05T14:58:43;3.35;;;1.05;;
39188;SDS011;24915;50.858;4.376;2022-08-05T15:01:09;4.40;;;1.27;;
39188;SDS011;24915;50.858;4.376;2022-08-05T15:03:35;2.67;;;0.70;;
39188;SDS011;24915;50.858;4.376;2022-08-05T15:06:03;2.50;;;1.08;;
39188;SDS011;24915;50.858;4.376;2022-08-05T15:08:29;7.03;;;1.23;;
39188;SDS011;24915;50.858;4.376;2022-08-05T15:10:54;2.58;;;1.10;;
39188;SDS011;24915;50.858;4.376;2022-08-05T15:13:21;7.85;;;1.58;;
39188;SDS011;24915;50.858;4.376;2022-08-05T15:15:47;3.70;;;0.73;;
39188;SDS011;24915;50.858;4.376;2022-08-05T15:18:13;4.82;;;0.90;;
39188;SDS011;24915;50.858;4.376;2022-08-05T15:20:38;4.05;;;0.82;;
39188;SDS011;24915;50.858;4.376;2022-08-05T15:23:05;1.55;;;0.82;;
39188;SDS011;24915;50.858;4.376;2022-08-05T15:25:32;7.28;;;1.98;;
39188;SDS011;24915;50.858;4.376;2022-08-05T15:27:58;2.53;;;2.25;;